sensor_id;sensor_type;location;lat;lon;timestamp;temperature;humidity
66035;HTU21D;52805;51.074;5.842;2022-09-13T00:01:07;19.81;72.87
66035;HTU21D;52805;51.074;5.842;2022-09-13T00:03:33;19.86;72.76
66035;HTU21D;52805;51.074;5.842;2022-09-13T00:06:16;19.87;72.74
66035;HTU21D;52805;51.074;5.842;2022-09-13T00:08:42;19.86;72.72
66035;HTU21D;52805;51.074;5.842;2022-09-13T00:11:16;19.87;72.63
66035;HTU21D;52805;51.074;5.842;2022-09-13T00:13:42;19.87;72.64
66035;HTU21D;52805;51.074;5.842;2022-09-13T00:16:19;19.85;72.73
66035;HTU21D;52805;51.074;5.842;2022-09-13T00:18:45;19.86;72.67
66035;HTU21D;52805;51.074;5.842;2022-09-13T00:21:14;19.86;72.59
66035;HTU21D;52805;51.074;5.842;2022-09-13T00:23:43;19.88;72.47
66035;HTU21D;52805;51.074;5.842;2022-09-13T00:26:13;19.86;72.33
66035;HTU21D;52805;51.074;5.842;2022-09-13T00:28:39;19.87;72.32
66035;HTU21D;52805;51.074;5.842;2022-09-13T00:31:07;19.87;72.22
66035;HTU21D;52805;51.074;5.842;2022-09-13T00:33:34;19.88;72.15
66035;HTU21D;52805;51.074;5.842;2022-09-13T00:36:08;19.89;72.07
66035;HTU21D;52805;51.074;5.842;2022-09-13T00:38:38;19.90;72.00
66035;HTU21D;52805;51.074;5.842;2022-09-13T00:41:06;19.92;71.86
66035;HTU21D;52805;51.074;5.842;2022-09-13T00:43:59;19.94;71.75
66035;HTU21D;52805;51.074;5.842;2022-09-13T00:46:43;19.96;71.56
66035;HTU21D;52805;51.074;5.842;2022-09-13T00:49:32;19.97;71.50
66035;HTU21D;52805;51.074;5.842;2022-09-13T00:52:04;20.00;71.35
66035;HTU21D;52805;51.074;5.842;2022-09-13T00:54:46;19.98;71.23
66035;HTU21D;52805;51.074;5.842;2022-09-13T00:57:17;19.99;71.16
66035;HTU21D;52805;51.074;5.842;2022-09-13T01:00:01;19.98;71.08
66035;HTU21D;52805;51.074;5.842;2022-09-13T01:02:32;20.00;70.84
66035;HTU21D;52805;51.074;5.842;2022-09-13T01:04:58;19.98;70.71
66035;HTU21D;52805;51.074;5.842;2022-09-13T01:07:24;19.97;70.58
66035;HTU21D;52805;51.074;5.842;2022-09-13T01:09:52;19.95;70.58
66035;HTU21D;52805;51.074;5.842;2022-09-13T01:12:49;19.92;70.56
66035;HTU21D;52805;51.074;5.842;2022-09-13T01:15:18;19.89;70.52
66035;HTU21D;52805;51.074;5.842;2022-09-13T01:17:43;19.88;70.54
66035;HTU21D;52805;51.074;5.842;2022-09-13T01:20:11;19.85;70.53
66035;HTU21D;52805;51.074;5.842;2022-09-13T01:23:07;19.83;70.55
66035;HTU21D;52805;51.074;5.842;2022-09-13T01:33:40;19.84;70.21
66035;HTU21D;52805;51.074;5.842;2022-09-13T01:39:05;19.87;69.99
66035;HTU21D;52805;51.074;5.842;2022-09-13T01:41:58;19.90;69.80
66035;HTU21D;52805;51.074;5.842;2022-09-13T01:52:58;19.99;69.26
66035;HTU21D;52805;51.074;5.842;2022-09-13T01:55:43;20.01;69.11
66035;HTU21D;52805;51.074;5.842;2022-09-13T02:01:11;20.06;68.87
66035;HTU21D;52805;51.074;5.842;2022-09-13T02:04:03;20.05;68.78
66035;HTU21D;52805;51.074;5.842;2022-09-13T02:06:35;20.06;68.76
66035;HTU21D;52805;51.074;5.842;2022-09-13T02:09:09;20.10;68.55
66035;HTU21D;52805;51.074;5.842;2022-09-13T02:11:40;20.10;68.42
66035;HTU21D;52805;51.074;5.842;2022-09-13T02:14:22;20.09;68.48
66035;HTU21D;52805;51.074;5.842;2022-09-13T02:17:00;20.10;68.43
66035;HTU21D;52805;51.074;5.842;2022-09-13T02:19:52;20.11;68.36
66035;HTU21D;52805;51.074;5.842;2022-09-13T02:22:24;20.10;68.34
66035;HTU21D;52805;51.074;5.842;2022-09-13T02:24:56;20.11;68.39
66035;HTU21D;52805;51.074;5.842;2022-09-13T02:27:31;20.10;68.53
66035;HTU21D;52805;51.074;5.842;2022-09-13T02:30:05;20.09;68.57
66035;HTU21D;52805;51.074;5.842;2022-09-13T02:35:19;20.09;68.55
66035;HTU21D;52805;51.074;5.842;2022-09-13T02:37:51;20.10;68.55
66035;HTU21D;52805;51.074;5.842;2022-09-13T02:40:25;20.09;68.59
66035;HTU21D;52805;51.074;5.842;2022-09-13T02:42:59;20.05;68.79
66035;HTU21D;52805;51.074;5.842;2022-09-13T02:45:46;20.05;68.87
66035;HTU21D;52805;51.074;5.842;2022-09-13T02:48:35;20.04;69.06
66035;HTU21D;52805;51.074;5.842;2022-09-13T02:51:21;20.02;69.34
66035;HTU21D;52805;51.074;5.842;2022-09-13T02:54:04;20.02;69.65
66035;HTU21D;52805;51.074;5.842;2022-09-13T02:56:47;19.99;69.91
66035;HTU21D;52805;51.074;5.842;2022-09-13T02:59:20;19.97;70.12
66035;HTU21D;52805;51.074;5.842;2022-09-13T03:02:02;19.97;70.30
66035;HTU21D;52805;51.074;5.842;2022-09-13T03:04:29;19.92;70.52
66035;HTU21D;52805;51.074;5.842;2022-09-13T03:06:55;19.90;70.76
66035;HTU21D;52805;51.074;5.842;2022-09-13T03:09:21;19.90;71.05
66035;HTU21D;52805;51.074;5.842;2022-09-13T03:14:49;19.84;71.64
66035;HTU21D;52805;51.074;5.842;2022-09-13T03:26:12;19.73;72.48
66035;HTU21D;52805;51.074;5.842;2022-09-13T03:31:49;19.70;72.56
66035;HTU21D;52805;51.074;5.842;2022-09-13T03:40:38;19.69;72.78
66035;HTU21D;52805;51.074;5.842;2022-09-13T03:43:30;19.70;72.77
66035;HTU21D;52805;51.074;5.842;2022-09-13T03:46:05;19.70;72.70
66035;HTU21D;52805;51.074;5.842;2022-09-13T03:48:35;19.71;72.72
66035;HTU21D;52805;51.074;5.842;2022-09-13T03:51:04;19.71;72.85
66035;HTU21D;52805;51.074;5.842;2022-09-13T03:53:35;19.71;72.64
66035;HTU21D;52805;51.074;5.842;2022-09-13T03:56:13;19.73;72.41
66035;HTU21D;52805;51.074;5.842;2022-09-13T03:58:40;19.74;72.34
66035;HTU21D;52805;51.074;5.842;2022-09-13T04:01:06;19.76;72.09
66035;HTU21D;52805;51.074;5.842;2022-09-13T04:03:32;19.75;71.93
66035;HTU21D;52805;51.074;5.842;2022-09-13T04:05:58;19.76;71.77
66035;HTU21D;52805;51.074;5.842;2022-09-13T04:08:23;19.76;71.72
66035;HTU21D;52805;51.074;5.842;2022-09-13T04:10:50;19.77;71.71
66035;HTU21D;52805;51.074;5.842;2022-09-13T04:13:16;19.77;71.77
66035;HTU21D;52805;51.074;5.842;2022-09-13T04:15:43;19.75;71.78
66035;HTU21D;52805;51.074;5.842;2022-09-13T04:18:08;19.76;71.73
66035;HTU21D;52805;51.074;5.842;2022-09-13T04:20:35;19.74;71.58
66035;HTU21D;52805;51.074;5.842;2022-09-13T04:23:01;19.76;71.42
66035;HTU21D;52805;51.074;5.842;2022-09-13T04:25:27;19.79;71.26
66035;HTU21D;52805;51.074;5.842;2022-09-13T04:27:53;19.75;71.13
66035;HTU21D;52805;51.074;5.842;2022-09-13T04:30:19;19.79;70.93
66035;HTU21D;52805;51.074;5.842;2022-09-13T04:32:46;19.80;70.79
66035;HTU21D;52805;51.074;5.842;2022-09-13T04:35:12;19.81;70.58
66035;HTU21D;52805;51.074;5.842;2022-09-13T04:37:41;19.80;70.42
66035;HTU21D;52805;51.074;5.842;2022-09-13T04:40:09;19.82;70.37
66035;HTU21D;52805;51.074;5.842;2022-09-13T04:42:35;19.82;70.39
66035;HTU21D;52805;51.074;5.842;2022-09-13T04:45:02;19.81;70.33
66035;HTU21D;52805;51.074;5.842;2022-09-13T04:47:28;19.81;70.42
66035;HTU21D;52805;51.074;5.842;2022-09-13T04:49:53;19.81;70.38
66035;HTU21D;52805;51.074;5.842;2022-09-13T04:52:19;19.81;70.37
66035;HTU21D;52805;51.074;5.842;2022-09-13T04:54:45;19.82;70.31
66035;HTU21D;52805;51.074;5.842;2022-09-13T04:57:13;19.83;70.29
66035;HTU21D;52805;51.074;5.842;2022-09-13T04:59:39;19.83;70.32
66035;HTU21D;52805;51.074;5.842;2022-09-13T05:02:05;19.85;70.27
66035;HTU21D;52805;51.074;5.842;2022-09-13T05:04:30;19.84;70.23
66035;HTU21D;52805;51.074;5.842;2022-09-13T05:06:56;19.85;70.13
66035;HTU21D;52805;51.074;5.842;2022-09-13T05:09:23;19.83;70.07
66035;HTU21D;52805;51.074;5.842;2022-09-13T05:11:49;19.85;70.10
66035;HTU21D;52805;51.074;5.842;2022-09-13T05:14:16;19.84;70.01
66035;HTU21D;52805;51.074;5.842;2022-09-13T05:16:41;19.85;69.89
66035;HTU21D;52805;51.074;5.842;2022-09-13T05:19:08;19.87;69.73
66035;HTU21D;52805;51.074;5.842;2022-09-13T05:21:34;19.85;69.68
66035;HTU21D;52805;51.074;5.842;2022-09-13T05:24:00;19.86;69.57
66035;HTU21D;52805;51.074;5.842;2022-09-13T05:26:27;19.86;69.55
66035;HTU21D;52805;51.074;5.842;2022-09-13T05:28:56;19.86;69.61
66035;HTU21D;52805;51.074;5.842;2022-09-13T05:31:28;19.86;69.65
66035;HTU21D;52805;51.074;5.842;2022-09-13T05:34:00;19.87;69.71
66035;HTU21D;52805;51.074;5.842;2022-09-13T05:36:26;19.88;69.50
66035;HTU21D;52805;51.074;5.842;2022-09-13T05:38:52;19.86;69.44
66035;HTU21D;52805;51.074;5.842;2022-09-13T05:41:19;19.86;69.42
66035;HTU21D;52805;51.074;5.842;2022-09-13T05:43:45;19.88;69.40
66035;HTU21D;52805;51.074;5.842;2022-09-13T05:46:18;19.90;69.41
66035;HTU21D;52805;51.074;5.842;2022-09-13T05:48:45;19.91;69.41
66035;HTU21D;52805;51.074;5.842;2022-09-13T05:51:15;19.94;69.42
66035;HTU21D;52805;51.074;5.842;2022-09-13T05:53:42;19.94;69.52
66035;HTU21D;52805;51.074;5.842;2022-09-13T05:56:12;19.95;69.60
66035;HTU21D;52805;51.074;5.842;2022-09-13T05:58:42;19.97;69.51
66035;HTU21D;52805;51.074;5.842;2022-09-13T06:01:09;19.97;69.50
66035;HTU21D;52805;51.074;5.842;2022-09-13T06:03:36;19.98;69.45
66035;HTU21D;52805;51.074;5.842;2022-09-13T06:06:03;19.98;69.43
66035;HTU21D;52805;51.074;5.842;2022-09-13T06:08:31;19.99;69.41
66035;HTU21D;52805;51.074;5.842;2022-09-13T06:11:00;20.01;69.42
66035;HTU21D;52805;51.074;5.842;2022-09-13T06:13:27;20.02;69.42
66035;HTU21D;52805;51.074;5.842;2022-09-13T06:15:54;20.03;69.39
66035;HTU21D;52805;51.074;5.842;2022-09-13T06:18:21;20.05;69.37
66035;HTU21D;52805;51.074;5.842;2022-09-13T06:20:47;20.05;69.29
66035;HTU21D;52805;51.074;5.842;2022-09-13T06:23:14;20.06;69.30
66035;HTU21D;52805;51.074;5.842;2022-09-13T06:25:40;20.10;69.29
66035;HTU21D;52805;51.074;5.842;2022-09-13T06:28:06;20.12;69.22
66035;HTU21D;52805;51.074;5.842;2022-09-13T06:30:32;20.14;69.07
66035;HTU21D;52805;51.074;5.842;2022-09-13T06:32:58;20.16;69.05
66035;HTU21D;52805;51.074;5.842;2022-09-13T06:35:24;20.18;69.00
66035;HTU21D;52805;51.074;5.842;2022-09-13T06:37:50;20.21;68.97
66035;HTU21D;52805;51.074;5.842;2022-09-13T06:40:16;20.25;68.98
66035;HTU21D;52805;51.074;5.842;2022-09-13T06:42:42;20.29;68.92
66035;HTU21D;52805;51.074;5.842;2022-09-13T06:45:08;20.32;68.90
66035;HTU21D;52805;51.074;5.842;2022-09-13T06:47:34;20.35;68.93
66035;HTU21D;52805;51.074;5.842;2022-09-13T06:50:00;20.40;68.84
66035;HTU21D;52805;51.074;5.842;2022-09-13T06:52:26;20.46;68.81
66035;HTU21D;52805;51.074;5.842;2022-09-13T06:54:52;20.51;68.77
66035;HTU21D;52805;51.074;5.842;2022-09-13T06:57:19;20.56;68.77
66035;HTU21D;52805;51.074;5.842;2022-09-13T06:59:44;20.60;68.66
66035;HTU21D;52805;51.074;5.842;2022-09-13T07:02:10;20.66;68.58
66035;HTU21D;52805;51.074;5.842;2022-09-13T07:04:37;20.66;68.55
66035;HTU21D;52805;51.074;5.842;2022-09-13T07:07:03;20.71;68.49
66035;HTU21D;52805;51.074;5.842;2022-09-13T07:09:28;20.72;68.38
66035;HTU21D;52805;51.074;5.842;2022-09-13T07:11:56;20.74;68.36
66035;HTU21D;52805;51.074;5.842;2022-09-13T07:14:24;20.77;68.26
66035;HTU21D;52805;51.074;5.842;2022-09-13T07:16:50;20.79;68.17
66035;HTU21D;52805;51.074;5.842;2022-09-13T07:19:19;20.81;68.10
66035;HTU21D;52805;51.074;5.842;2022-09-13T07:21:48;20.84;67.98
66035;HTU21D;52805;51.074;5.842;2022-09-13T07:24:15;20.85;68.02
66035;HTU21D;52805;51.074;5.842;2022-09-13T07:26:41;20.88;68.02
66035;HTU21D;52805;51.074;5.842;2022-09-13T07:29:10;20.92;67.97
66035;HTU21D;52805;51.074;5.842;2022-09-13T07:31:42;20.99;67.87
66035;HTU21D;52805;51.074;5.842;2022-09-13T07:34:14;21.02;67.70
66035;HTU21D;52805;51.074;5.842;2022-09-13T07:36:41;21.06;67.60
66035;HTU21D;52805;51.074;5.842;2022-09-13T07:39:07;21.11;67.30
66035;HTU21D;52805;51.074;5.842;2022-09-13T07:41:34;21.14;67.33
66035;HTU21D;52805;51.074;5.842;2022-09-13T07:44:00;21.17;67.30
66035;HTU21D;52805;51.074;5.842;2022-09-13T07:46:28;21.22;67.21
66035;HTU21D;52805;51.074;5.842;2022-09-13T07:48:59;21.28;67.03
66035;HTU21D;52805;51.074;5.842;2022-09-13T07:51:30;21.33;66.95
66035;HTU21D;52805;51.074;5.842;2022-09-13T07:53:59;21.35;66.91
66035;HTU21D;52805;51.074;5.842;2022-09-13T07:56:27;21.39;66.82
66035;HTU21D;52805;51.074;5.842;2022-09-13T07:58:53;21.47;66.65
66035;HTU21D;52805;51.074;5.842;2022-09-13T08:01:24;21.51;66.69
66035;HTU21D;52805;51.074;5.842;2022-09-13T08:03:59;21.59;66.52
66035;HTU21D;52805;51.074;5.842;2022-09-13T08:06:27;21.65;66.43
66035;HTU21D;52805;51.074;5.842;2022-09-13T08:08:53;21.75;66.42
66035;HTU21D;52805;51.074;5.842;2022-09-13T08:11:40;21.81;66.04
66035;HTU21D;52805;51.074;5.842;2022-09-13T08:14:09;21.90;66.05
66035;HTU21D;52805;51.074;5.842;2022-09-13T08:16:35;21.96;65.80
66035;HTU21D;52805;51.074;5.842;2022-09-13T08:19:03;22.03;65.56
66035;HTU21D;52805;51.074;5.842;2022-09-13T08:21:37;22.10;65.46
66035;HTU21D;52805;51.074;5.842;2022-09-13T08:24:05;22.14;65.37
66035;HTU21D;52805;51.074;5.842;2022-09-13T08:26:34;22.18;65.47
66035;HTU21D;52805;51.074;5.842;2022-09-13T08:29:03;22.22;65.37
66035;HTU21D;52805;51.074;5.842;2022-09-13T08:31:30;22.25;65.24
66035;HTU21D;52805;51.074;5.842;2022-09-13T08:33:56;22.26;65.40
66035;HTU21D;52805;51.074;5.842;2022-09-13T08:36:26;22.28;65.44
66035;HTU21D;52805;51.074;5.842;2022-09-13T08:38:58;22.32;65.48
66035;HTU21D;52805;51.074;5.842;2022-09-13T08:44:15;22.33;65.48
66035;HTU21D;52805;51.074;5.842;2022-09-13T08:46:46;22.35;65.55
66035;HTU21D;52805;51.074;5.842;2022-09-13T08:49:25;22.39;65.59
66035;HTU21D;52805;51.074;5.842;2022-09-13T08:51:58;22.40;65.50
66035;HTU21D;52805;51.074;5.842;2022-09-13T08:54:25;22.44;65.55
66035;HTU21D;52805;51.074;5.842;2022-09-13T08:56:58;22.47;65.63
66035;HTU21D;52805;51.074;5.842;2022-09-13T09:05:10;22.62;65.24
66035;HTU21D;52805;51.074;5.842;2022-09-13T09:07:46;22.65;65.10
66035;HTU21D;52805;51.074;5.842;2022-09-13T09:10:25;22.69;65.10
66035;HTU21D;52805;51.074;5.842;2022-09-13T09:13:05;22.76;64.91
66035;HTU21D;52805;51.074;5.842;2022-09-13T09:15:49;22.82;64.90
66035;HTU21D;52805;51.074;5.842;2022-09-13T09:18:26;22.86;64.68
66035;HTU21D;52805;51.074;5.842;2022-09-13T09:20:59;22.93;64.70
66035;HTU21D;52805;51.074;5.842;2022-09-13T09:23:35;23.01;64.71
66035;HTU21D;52805;51.074;5.842;2022-09-13T09:26:17;23.07;64.64
66035;HTU21D;52805;51.074;5.842;2022-09-13T09:28:50;23.13;64.49
66035;HTU21D;52805;51.074;5.842;2022-09-13T09:34:02;23.25;64.12
66035;HTU21D;52805;51.074;5.842;2022-09-13T09:36:43;23.31;63.92
66035;HTU21D;52805;51.074;5.842;2022-09-13T09:39:13;23.35;63.80
66035;HTU21D;52805;51.074;5.842;2022-09-13T09:41:42;23.39;63.65
66035;HTU21D;52805;51.074;5.842;2022-09-13T09:44:24;23.42;63.43
66035;HTU21D;52805;51.074;5.842;2022-09-13T09:47:13;23.47;63.35
66035;HTU21D;52805;51.074;5.842;2022-09-13T09:55:16;23.68;62.87
66035;HTU21D;52805;51.074;5.842;2022-09-13T10:00:16;23.83;62.68
66035;HTU21D;52805;51.074;5.842;2022-09-13T10:02:43;23.91;62.57
66035;HTU21D;52805;51.074;5.842;2022-09-13T10:05:11;23.97;62.25
66035;HTU21D;52805;51.074;5.842;2022-09-13T10:07:37;24.09;62.02
66035;HTU21D;52805;51.074;5.842;2022-09-13T10:10:07;24.17;61.42
66035;HTU21D;52805;51.074;5.842;2022-09-13T10:12:53;24.21;61.14
66035;HTU21D;52805;51.074;5.842;2022-09-13T10:15:27;24.29;61.06
66035;HTU21D;52805;51.074;5.842;2022-09-13T10:20:26;24.45;60.82
66035;HTU21D;52805;51.074;5.842;2022-09-13T10:25:41;24.63;60.19
66035;HTU21D;52805;51.074;5.842;2022-09-13T10:28:18;24.69;60.15
66035;HTU21D;52805;51.074;5.842;2022-09-13T10:33:32;24.76;59.72
66035;HTU21D;52805;51.074;5.842;2022-09-13T10:36:06;24.79;59.37
66035;HTU21D;52805;51.074;5.842;2022-09-13T10:38:39;24.79;59.48
66035;HTU21D;52805;51.074;5.842;2022-09-13T10:41:09;24.83;59.28
66035;HTU21D;52805;51.074;5.842;2022-09-13T10:43:36;24.84;59.11
66035;HTU21D;52805;51.074;5.842;2022-09-13T10:46:05;24.93;59.09
66035;HTU21D;52805;51.074;5.842;2022-09-13T10:48:46;25.04;58.86
66035;HTU21D;52805;51.074;5.842;2022-09-13T10:51:34;25.21;58.45
66035;HTU21D;52805;51.074;5.842;2022-09-13T10:56:40;25.46;58.14
66035;HTU21D;52805;51.074;5.842;2022-09-13T10:59:27;25.59;58.00
66035;HTU21D;52805;51.074;5.842;2022-09-13T11:07:55;26.09;57.47
66035;HTU21D;52805;51.074;5.842;2022-09-13T11:10:36;26.22;57.24
66035;HTU21D;52805;51.074;5.842;2022-09-13T11:13:30;26.34;56.77
66035;HTU21D;52805;51.074;5.842;2022-09-13T11:21:46;26.48;55.84
66035;HTU21D;52805;51.074;5.842;2022-09-13T11:24:22;26.53;55.47
66035;HTU21D;52805;51.074;5.842;2022-09-13T11:27:16;26.65;55.30
66035;HTU21D;52805;51.074;5.842;2022-09-13T11:30:00;26.82;54.97
66035;HTU21D;52805;51.074;5.842;2022-09-13T11:35:35;27.10;54.48
66035;HTU21D;52805;51.074;5.842;2022-09-13T11:38:43;27.22;53.98
66035;HTU21D;52805;51.074;5.842;2022-09-13T11:44:16;27.24;53.33
66035;HTU21D;52805;51.074;5.842;2022-09-13T11:49:59;27.25;53.52
66035;HTU21D;52805;51.074;5.842;2022-09-13T11:53:10;27.30;53.09
66035;HTU21D;52805;51.074;5.842;2022-09-13T11:55:58;27.19;52.66
66035;HTU21D;52805;51.074;5.842;2022-09-13T11:58:49;27.08;52.94
66035;HTU21D;52805;51.074;5.842;2022-09-13T12:01:23;27.01;53.00
66035;HTU21D;52805;51.074;5.842;2022-09-13T12:04:16;27.01;52.46
66035;HTU21D;52805;51.074;5.842;2022-09-13T12:06:48;26.98;52.35
66035;HTU21D;52805;51.074;5.842;2022-09-13T12:09:24;27.00;52.27
66035;HTU21D;52805;51.074;5.842;2022-09-13T12:12:04;27.00;51.95
66035;HTU21D;52805;51.074;5.842;2022-09-13T12:14:58;26.95;51.90
66035;HTU21D;52805;51.074;5.842;2022-09-13T12:17:38;26.89;52.11
66035;HTU21D;52805;51.074;5.842;2022-09-13T12:20:14;26.82;52.27
66035;HTU21D;52805;51.074;5.842;2022-09-13T12:22:43;26.75;52.53
66035;HTU21D;52805;51.074;5.842;2022-09-13T12:25:18;26.68;52.86
66035;HTU21D;52805;51.074;5.842;2022-09-13T12:28:12;26.68;52.38
66035;HTU21D;52805;51.074;5.842;2022-09-13T12:30:55;26.70;52.69
66035;HTU21D;52805;51.074;5.842;2022-09-13T12:33:22;26.71;52.48
66035;HTU21D;52805;51.074;5.842;2022-09-13T12:36:04;26.70;52.67
66035;HTU21D;52805;51.074;5.842;2022-09-13T12:47:13;26.71;52.81
66035;HTU21D;52805;51.074;5.842;2022-09-13T13:00:33;26.87;52.37
66035;HTU21D;52805;51.074;5.842;2022-09-13T13:03:13;27.04;52.53
66035;HTU21D;52805;51.074;5.842;2022-09-13T13:05:43;27.17;52.34
66035;HTU21D;52805;51.074;5.842;2022-09-13T13:08:28;27.27;51.92
66035;HTU21D;52805;51.074;5.842;2022-09-13T13:11:04;27.36;51.75
66035;HTU21D;52805;51.074;5.842;2022-09-13T13:13:42;27.45;51.63
66035;HTU21D;52805;51.074;5.842;2022-09-13T13:16:30;27.64;51.24
66035;HTU21D;52805;51.074;5.842;2022-09-13T13:18:58;27.82;50.90
66035;HTU21D;52805;51.074;5.842;2022-09-13T13:26:52;28.14;50.34
66035;HTU21D;52805;51.074;5.842;2022-09-13T13:29:28;28.21;50.16
66035;HTU21D;52805;51.074;5.842;2022-09-13T13:34:48;28.16;50.12
66035;HTU21D;52805;51.074;5.842;2022-09-13T13:39:43;28.14;50.06
66035;HTU21D;52805;51.074;5.842;2022-09-13T13:50:07;28.26;49.95
66035;HTU21D;52805;51.074;5.842;2022-09-13T13:52:57;28.18;49.90
66035;HTU21D;52805;51.074;5.842;2022-09-13T13:55:48;28.10;50.26
66035;HTU21D;52805;51.074;5.842;2022-09-13T13:58:42;28.10;50.59
66035;HTU21D;52805;51.074;5.842;2022-09-13T14:01:16;28.12;50.42
66035;HTU21D;52805;51.074;5.842;2022-09-13T14:04:28;28.09;50.37
66035;HTU21D;52805;51.074;5.842;2022-09-13T14:16:08;27.82;50.36
66035;HTU21D;52805;51.074;5.842;2022-09-13T14:18:46;27.79;50.52
66035;HTU21D;52805;51.074;5.842;2022-09-13T14:21:21;27.79;50.47
66035;HTU21D;52805;51.074;5.842;2022-09-13T14:23:48;27.71;50.71
66035;HTU21D;52805;51.074;5.842;2022-09-13T14:26:14;27.65;50.76
66035;HTU21D;52805;51.074;5.842;2022-09-13T14:28:40;27.57;50.83
66035;HTU21D;52805;51.074;5.842;2022-09-13T14:31:06;27.51;51.01
66035;HTU21D;52805;51.074;5.842;2022-09-13T14:33:35;27.42;51.21
66035;HTU21D;52805;51.074;5.842;2022-09-13T14:36:17;27.35;51.37
66035;HTU21D;52805;51.074;5.842;2022-09-13T14:38:49;27.27;51.60
66035;HTU21D;52805;51.074;5.842;2022-09-13T14:41:19;27.23;51.86
66035;HTU21D;52805;51.074;5.842;2022-09-13T14:43:47;27.20;52.18
66035;HTU21D;52805;51.074;5.842;2022-09-13T14:46:32;27.17;52.46
66035;HTU21D;52805;51.074;5.842;2022-09-13T14:49:22;27.12;52.38
66035;HTU21D;52805;51.074;5.842;2022-09-13T14:51:55;27.08;52.43
66035;HTU21D;52805;51.074;5.842;2022-09-13T14:56:57;26.98;52.85
66035;HTU21D;52805;51.074;5.842;2022-09-13T14:59:28;26.95;53.10
66035;HTU21D;52805;51.074;5.842;2022-09-13T15:01:54;26.89;53.32
66035;HTU21D;52805;51.074;5.842;2022-09-13T15:04:22;26.81;53.61
66035;HTU21D;52805;51.074;5.842;2022-09-13T15:07:15;26.71;54.10
66035;HTU21D;52805;51.074;5.842;2022-09-13T15:09:43;26.65;54.55
66035;HTU21D;52805;51.074;5.842;2022-09-13T15:12:22;26.56;55.12
66035;HTU21D;52805;51.074;5.842;2022-09-13T15:17:56;26.49;56.96
66035;HTU21D;52805;51.074;5.842;2022-09-13T15:20:25;26.49;57.62
66035;HTU21D;52805;51.074;5.842;2022-09-13T15:22:52;26.45;58.03
66035;HTU21D;52805;51.074;5.842;2022-09-13T15:25:25;26.41;58.56
66035;HTU21D;52805;51.074;5.842;2022-09-13T15:27:53;26.42;59.31
66035;HTU21D;52805;51.074;5.842;2022-09-13T15:32:45;26.36;60.46
66035;HTU21D;52805;51.074;5.842;2022-09-13T15:35:28;26.31;60.79
66035;HTU21D;52805;51.074;5.842;2022-09-13T15:41:11;26.16;61.41
66035;HTU21D;52805;51.074;5.842;2022-09-13T15:43:37;26.11;61.36
66035;HTU21D;52805;51.074;5.842;2022-09-13T15:46:04;26.09;61.34
66035;HTU21D;52805;51.074;5.842;2022-09-13T15:48:35;26.03;61.31
66035;HTU21D;52805;51.074;5.842;2022-09-13T15:51:10;25.99;61.54
66035;HTU21D;52805;51.074;5.842;2022-09-13T15:53:38;25.94;61.59
66035;HTU21D;52805;51.074;5.842;2022-09-13T15:56:06;25.89;61.63
66035;HTU21D;52805;51.074;5.842;2022-09-13T15:58:34;25.84;61.66
66035;HTU21D;52805;51.074;5.842;2022-09-13T16:01:00;25.80;61.92
66035;HTU21D;52805;51.074;5.842;2022-09-13T16:03:26;25.76;62.17
66035;HTU21D;52805;51.074;5.842;2022-09-13T16:05:51;25.72;62.47
66035;HTU21D;52805;51.074;5.842;2022-09-13T16:08:18;25.68;62.77
66035;HTU21D;52805;51.074;5.842;2022-09-13T16:10:45;25.62;62.97
66035;HTU21D;52805;51.074;5.842;2022-09-13T16:13:11;25.59;63.11
66035;HTU21D;52805;51.074;5.842;2022-09-13T16:15:37;25.56;63.34
66035;HTU21D;52805;51.074;5.842;2022-09-13T16:18:03;25.50;63.59
66035;HTU21D;52805;51.074;5.842;2022-09-13T16:20:28;25.46;63.87
66035;HTU21D;52805;51.074;5.842;2022-09-13T16:22:54;25.37;64.26
66035;HTU21D;52805;51.074;5.842;2022-09-13T16:25:20;25.31;64.59
66035;HTU21D;52805;51.074;5.842;2022-09-13T16:27:46;25.27;65.11
66035;HTU21D;52805;51.074;5.842;2022-09-13T16:30:14;25.18;65.72
66035;HTU21D;52805;51.074;5.842;2022-09-13T16:32:40;25.05;66.11
66035;HTU21D;52805;51.074;5.842;2022-09-13T16:35:07;24.87;66.72
66035;HTU21D;52805;51.074;5.842;2022-09-13T16:37:33;24.75;67.30
66035;HTU21D;52805;51.074;5.842;2022-09-13T16:39:58;24.65;67.85
66035;HTU21D;52805;51.074;5.842;2022-09-13T16:42:24;24.56;68.21
66035;HTU21D;52805;51.074;5.842;2022-09-13T16:44:50;24.47;68.57
66035;HTU21D;52805;51.074;5.842;2022-09-13T16:47:15;24.43;68.84
66035;HTU21D;52805;51.074;5.842;2022-09-13T16:49:42;24.32;69.10
66035;HTU21D;52805;51.074;5.842;2022-09-13T16:52:08;24.26;69.59
66035;HTU21D;52805;51.074;5.842;2022-09-13T16:54:34;24.18;70.00
66035;HTU21D;52805;51.074;5.842;2022-09-13T16:57:03;24.15;70.25
66035;HTU21D;52805;51.074;5.842;2022-09-13T16:59:30;24.12;70.42
66035;HTU21D;52805;51.074;5.842;2022-09-13T17:01:56;24.10;71.00
66035;HTU21D;52805;51.074;5.842;2022-09-13T17:04:22;24.05;71.34
66035;HTU21D;52805;51.074;5.842;2022-09-13T17:06:48;23.99;71.83
66035;HTU21D;52805;51.074;5.842;2022-09-13T17:09:15;23.94;72.19
66035;HTU21D;52805;51.074;5.842;2022-09-13T17:11:43;23.92;72.35
66035;HTU21D;52805;51.074;5.842;2022-09-13T17:14:11;23.90;72.54
66035;HTU21D;52805;51.074;5.842;2022-09-13T17:16:46;23.87;72.71
66035;HTU21D;52805;51.074;5.842;2022-09-13T17:19:18;23.89;72.87
66035;HTU21D;52805;51.074;5.842;2022-09-13T17:21:44;23.86;72.96
66035;HTU21D;52805;51.074;5.842;2022-09-13T17:24:10;23.84;73.03
66035;HTU21D;52805;51.074;5.842;2022-09-13T17:26:36;23.81;73.20
66035;HTU21D;52805;51.074;5.842;2022-09-13T17:29:02;23.79;73.50
66035;HTU21D;52805;51.074;5.842;2022-09-13T17:31:27;23.74;73.66
66035;HTU21D;52805;51.074;5.842;2022-09-13T17:33:53;23.69;73.77
66035;HTU21D;52805;51.074;5.842;2022-09-13T17:36:20;23.67;73.90
66035;HTU21D;52805;51.074;5.842;2022-09-13T17:38:46;23.65;74.08
66035;HTU21D;52805;51.074;5.842;2022-09-13T17:41:17;23.61;74.24
66035;HTU21D;52805;51.074;5.842;2022-09-13T17:43:45;23.55;74.52
66035;HTU21D;52805;51.074;5.842;2022-09-13T17:46:14;23.49;74.83
66035;HTU21D;52805;51.074;5.842;2022-09-13T17:48:40;23.43;75.12
66035;HTU21D;52805;51.074;5.842;2022-09-13T17:51:09;23.40;75.41
66035;HTU21D;52805;51.074;5.842;2022-09-13T17:53:46;23.36;75.65
66035;HTU21D;52805;51.074;5.842;2022-09-13T17:56:21;23.31;75.80
66035;HTU21D;52805;51.074;5.842;2022-09-13T17:58:48;23.29;75.86
66035;HTU21D;52805;51.074;5.842;2022-09-13T18:01:15;23.28;76.01
66035;HTU21D;52805;51.074;5.842;2022-09-13T18:03:40;23.28;75.41
66035;HTU21D;52805;51.074;5.842;2022-09-13T18:06:08;23.31;75.44
66035;HTU21D;52805;51.074;5.842;2022-09-13T18:08:35;23.30;75.57
66035;HTU21D;52805;51.074;5.842;2022-09-13T18:13:32;23.29;75.92
66035;HTU21D;52805;51.074;5.842;2022-09-13T18:16:07;23.26;76.05
66035;HTU21D;52805;51.074;5.842;2022-09-13T18:18:35;23.26;76.16
66035;HTU21D;52805;51.074;5.842;2022-09-13T18:21:01;23.24;76.21